Time;durP1;ratioP1;P1;durP2;ratioP2;P2;SDS_P1;SDS_P2;PMS_P1;PMS_P2;Temp;Humidity;BMP_temperature;BMP_pressure;BME280_temperature;BME280_humidity;BME280_pressure;Samples;Min_cycle;Max_cycle;Signal;HPM_P1;HPM_P2
2022/11/02 07:24:46;;;;;;;;;10.50;6.00;;;;;12.25;87.81;102163.28;6173113;22;48224;31
2022/11/02 07:27:11;;;;;;;;;2.75;2.75;;;;;12.26;87.87;102170.38;6138332;23;50133;-73
2022/11/02 07:29:36;;;;;;;;;4.25;4.00;;;;;11.74;87.83;102078.94;6157007;22;49752;-74
2022/11/02 07:32:02;;;;;;;;;2.50;2.00;;;;;12.32;88.00;102172.31;6168639;23;49682;-75
2022/11/02 07:34:27;;;;;;;;;5.25;1.75;;;;;11.64;87.34;102052.25;6169697;23;50071;-73
2022/11/02 07:36:54;;;;;;;;;7.50;6.00;;;;;10.65;87.83;101894.31;6170507;23;64799;-71
2022/11/02 07:39:19;;;;;;;;;5.25;3.75;;;;;11.66;87.76;102051.44;6173889;22;49572;-75
2022/11/02 07:41:45;;;;;;;;;4.75;4.75;;;;;10.51;88.06;101848.25;6174938;23;49733;-73
2022/11/02 07:44:10;;;;;;;;;12.50;6.75;;;;;12.26;88.22;102156.31;6175037;23;49984;-72
2022/11/02 07:46:35;;;;;;;;;1.75;1.75;;;;;12.20;87.61;102162.25;6175513;23;50876;-74
2022/11/02 07:49:01;;;;;;;;;4.00;3.00;;;;;12.14;87.96;102119.91;6176272;22;49663;-74
2022/11/02 07:51:29;;;;;;;;;6.50;3.25;;;;;11.57;87.44;102051.09;6177771;22;49744;-74
2022/11/02 07:53:54;;;;;;;;;2.00;1.75;;;;;12.52;87.79;102180.94;6175292;23;49873;-72
2022/11/02 07:56:20;;;;;;;;;5.25;3.25;;;;;12.50;87.54;102182.63;6175190;22;49789;-71
2022/11/02 07:58:45;;;;;;;;;5.50;3.75;;;;;12.36;87.16;102152.28;6173416;23;50085;-71
2022/11/02 08:01:13;;;;;;;;;4.50;3.00;;;;;12.54;86.89;102202.94;6174299;23;49842;-71
2022/11/02 08:03:39;;;;;;;;;2.50;2.00;;;;;12.58;86.86;102171.50;6175936;22;49769;-73
2022/11/02 08:06:04;;;;;;;;;5.00;3.75;;;;;11.56;86.68;101988.81;6175044;23;50159;-70
2022/11/02 08:08:29;;;;;;;;;9.25;5.50;;;;;12.68;86.68;102171.84;6175236;23;50192;-70
2022/11/02 08:11:03;;;;;;;;;3.25;2.00;;;;;11.83;86.09;102023.16;6175041;23;49679;-70
2022/11/02 08:13:28;;;;;;;;;6.50;2.50;;;;;11.22;86.34;101931.50;6173742;23;50063;-70
2022/11/02 08:15:54;;;;;;;;;4.00;3.00;;;;;12.27;86.25;102094.91;6198562;22;52349;-70
2022/11/02 08:18:22;;;;;;;;;5.25;4.00;;;;;12.53;86.24;102146.72;6174648;22;49674;-70
2022/11/02 08:20:47;;;;;;;;;4.25;1.50;;;;;12.83;85.67;102188.16;6172847;23;49660;-66
2022/11/02 08:23:15;;;;;;;;;4.00;2.75;;;;;12.82;85.67;102166.19;6173989;23;49897;-66
2022/11/02 08:25:42;;;;;;;;;4.25;2.00;;;;;12.87;85.60;102163.72;6171175;23;53172;-66
2022/11/02 08:28:12;;;;;;;;;1.25;1.25;;;;;13.07;85.39;102201.28;6173866;23;49699;-66
2022/11/02 08:30:37;;;;;;;;;2.25;1.25;;;;;13.13;84.84;102189.22;6172679;23;49854;-66
2022/11/02 08:33:10;;;;;;;;;5.50;3.00;;;;;13.02;84.70;102169.47;6173080;23;49777;-66
2022/11/02 08:35:36;;;;;;;;;2.00;1.00;;;;;12.90;84.66;102133.06;6173346;23;50811;-66
2022/11/02 08:38:02;;;;;;;;;2.50;2.00;;;;;13.26;84.00;102184.38;6173305;23;49969;-65
2022/11/02 08:40:29;;;;;;;;;7.50;2.50;;;;;13.24;83.75;102184.31;6173617;23;49759;-66
2022/11/02 08:42:59;;;;;;;;;5.25;4.25;;;;;13.32;82.97;102185.47;6174397;23;49874;-66
2022/11/02 08:45:26;;;;;;;;;3.25;2.75;;;;;12.78;82.28;102079.97;6173755;23;50523;-68
2022/11/02 08:47:51;;;;;;;;;5.00;3.25;;;;;13.42;81.99;102187.56;6174183;23;49624;-67
2022/11/02 08:50:17;;;;;;;;;6.00;5.25;;;;;13.46;82.00;102194.69;6173323;23;50166;-65
2022/11/02 08:52:42;;;;;;;;;5.50;2.50;;;;;13.57;81.73;102183.59;6174641;23;49976;-66
2022/11/02 08:55:08;;;;;;;;;1.00;0.75;;;;;13.68;81.47;102187.44;6174172;23;50368;-70
2022/11/02 08:57:50;;;;;;;;;6.50;3.00;;;;;13.53;81.37;102160.59;6170071;23;49792;-67
2022/11/02 09:00:17;;;;;;;;;3.75;1.75;;;;;13.58;81.05;102153.72;6172835;23;50004;-66
2022/11/02 09:02:43;;;;;;;;;1.00;1.00;;;;;13.84;80.79;102192.34;6175545;23;49667;-66
2022/11/02 09:05:09;;;;;;;;;7.00;3.00;;;;;13.82;80.67;102179.97;6174563;23;49810;-66
2022/11/02 09:07:35;;;;;;;;;2.25;1.00;;;;;13.90;80.19;102184.63;6174209;23;49762;-68
2022/11/02 09:10:01;;;;;;;;;3.50;2.00;;;;;13.87;79.85;102166.03;6173756;23;49715;-67
2022/11/02 09:12:26;;;;;;;;;3.00;1.50;;;;;13.94;78.89;102175.94;6175807;23;49552;-67
2022/11/02 09:14:52;;;;;;;;;4.50;4.00;;;;;14.03;79.24;102170.94;6173808;23;65272;-66
2022/11/02 09:17:17;;;;;;;;;6.00;2.50;;;;;14.12;78.11;102183.50;6172888;23;49683;-65
2022/11/02 09:19:42;;;;;;;;;7.00;4.25;;;;;14.07;77.53;102163.97;6174526;23;49708;-66
2022/11/02 09:22:08;;;;;;;;;4.00;3.00;;;;;14.20;77.71;102179.34;6175313;23;50435;-65
2022/11/02 09:24:33;;;;;;;;;3.50;2.50;;;;;14.26;77.58;102178.59;6175019;23;50464;-64
2022/11/02 09:26:58;;;;;;;;;2.25;2.00;;;;;13.99;76.91;102116.25;6173757;23;54665;-66
2022/11/02 09:29:24;;;;;;;;;4.00;3.00;;;;;14.22;76.87;102145.94;6174618;22;57884;-65
2022/11/02 09:31:49;;;;;;;;;2.75;2.75;;;;;14.37;76.57;102170.97;6175215;23;49716;-65
2022/11/02 09:34:15;;;;;;;;;1.00;1.00;;;;;14.37;76.48;102163.06;6174770;23;49939;-66
2022/11/02 09:36:41;;;;;;;;;4.25;2.00;;;;;14.40;76.65;102157.88;6174731;22;55864;-66
2022/11/02 09:39:07;;;;;;;;;6.50;4.50;;;;;14.46;76.31;102161.59;6174726;23;49679;-65
2022/11/02 09:42:03;;;;;;;;;2.00;2.00;;;;;14.31;76.06;102125.06;6174568;23;49681;-65
2022/11/02 09:44:48;;;;;;;;;4.00;2.50;;;;;14.37;75.38;102126.97;6174851;23;51239;-67
2022/11/02 09:47:15;;;;;;;;;4.50;3.00;;;;;14.63;74.70;102155.88;6173958;23;49876;-65
2022/11/02 09:49:42;;;;;;;;;7.25;5.00;;;;;14.65;74.47;102159.44;6173652;23;49605;-67
2022/11/02 09:52:20;;;;;;;;;4.00;2.75;;;;;14.68;74.74;102160.44;6174301;22;49683;-67
2022/11/02 09:54:53;;;;;;;;;2.25;1.25;;;;;14.62;74.61;102143.50;6173949;23;50767;-67
2022/11/02 09:57:26;;;;;;;;;7.25;5.50;;;;;14.76;74.31;102158.84;6174490;23;49701;-67
2022/11/02 09:59:52;;;;;;;;;3.50;1.75;;;;;14.74;73.88;102154.41;6173259;23;49791;-66
2022/11/02 10:02:56;;;;;;;;;2.25;1.75;;;;;14.58;74.05;102131.97;6174807;23;49881;-68
2022/11/02 10:05:41;;;;;;;;;3.00;2.00;;;;;14.79;74.29;102169.53;6152738;23;50347;-67
2022/11/02 10:08:27;;;;;;;;;4.00;3.00;;;;;14.76;74.50;102148.28;6174391;23;49933;-68
2022/11/02 10:11:17;;;;;;;;;5.00;3.75;;;;;14.90;73.93;102159.22;6174377;23;49753;-67
2022/11/02 10:13:48;;;;;;;;;5.50;3.50;;;;;14.95;73.59;102154.94;6129362;23;50005;-67
2022/11/02 10:16:19;;;;;;;;;1.75;1.25;;;;;15.00;73.64;102157.72;6172253;23;52053;-66
2022/11/02 10:18:49;;;;;;;;;6.25;2.00;;;;;15.02;73.64;102154.25;6174009;23;49669;-66
2022/11/02 10:21:27;;;;;;;;;2.75;2.50;;;;;15.07;73.43;102160.56;6174380;23;49706;-66
2022/11/02 10:23:54;;;;;;;;;6.00;3.25;;;;;14.91;74.01;102117.81;6172414;23;50496;-65
2022/11/02 10:26:27;;;;;;;;;5.00;3.75;;;;;15.09;73.37;102153.53;6173676;23;49876;-66
2022/11/02 10:28:59;;;;;;;;;3.00;2.00;;;;;14.79;72.90;102094.63;6173513;23;49624;-69
2022/11/02 10:31:29;;;;;;;;;3.00;2.25;;;;;15.08;72.35;102138.53;6171708;23;49941;-71
2022/11/02 10:33:58;;;;;;;;;3.00;2.00;;;;;15.17;71.66;102137.88;6174588;23;49877;-66
2022/11/02 10:36:42;;;;;;;;;3.25;1.75;;;;;15.30;71.81;102166.38;6174298;23;50779;-66
2022/11/02 10:39:28;;;;;;;;;4.25;4.25;;;;;15.36;72.20;102168.28;6174075;23;50024;-66
2022/11/02 10:42:23;;;;;;;;;1.25;1.00;;;;;15.35;71.55;102154.19;6171644;23;49698;-68
2022/11/02 10:44:54;;;;;;;;;3.00;2.00;;;;;15.44;71.47;102164.97;6172424;23;49586;-69
2022/11/02 10:47:44;;;;;;;;;3.00;3.00;;;;;15.28;70.89;102140.75;6171442;23;51403;-67
2022/11/02 10:50:34;;;;;;;;;3.00;1.25;;;;;15.43;70.45;102160.50;6173865;22;49793;-64
2022/11/02 10:53:01;;;;;;;;;0.00;0.00;;;;;15.35;70.19;102129.47;6172024;23;49875;-66
2022/11/02 10:55:38;;;;;;;;;4.25;2.50;;;;;15.47;69.95;102156.19;6173972;23;49654;-67
2022/11/02 10:58:05;;;;;;;;;4.50;2.75;;;;;15.43;69.44;102155.22;6174872;23;50547;-68
2022/11/02 11:00:34;;;;;;;;;5.50;1.50;;;;;15.43;69.92;102139.34;6175568;23;49535;-66
2022/11/02 11:03:16;;;;;;;;;3.00;2.00;;;;;15.43;69.74;102141.97;6175413;23;49791;-66
2022/11/02 11:05:54;;;;;;;;;2.00;2.00;;;;;15.47;69.67;102140.31;6175281;23;49759;-65
2022/11/02 11:08:37;;;;;;;;;4.00;2.00;;;;;15.48;69.66;102142.09;6174558;23;50585;-66
2022/11/02 11:11:28;;;;;;;;;5.00;2.00;;;;;15.49;69.98;102138.59;6173774;23;49779;-70
2022/11/02 11:13:58;;;;;;;;;3.75;1.75;;;;;15.54;69.86;102139.59;6172985;23;49664;-73
2022/11/02 11:16:51;;;;;;;;;4.00;3.50;;;;;15.57;69.38;102139.66;6175258;23;49836;-69
2022/11/02 11:19:37;;;;;;;;;2.50;1.25;;;;;15.60;69.56;102128.25;6170141;23;50468;-67
2022/11/02 11:22:22;;;;;;;;;5.50;3.00;;;;;15.62;69.32;102130.09;6175613;23;49497;-69
2022/11/02 11:24:47;;;;;;;;;5.25;1.75;;;;;15.29;69.96;102061.41;6175388;23;49710;-68
2022/11/02 11:27:19;;;;;;;;;3.00;3.00;;;;;15.70;69.86;102123.22;6174859;23;49745;-68
2022/11/02 11:29:48;;;;;;;;;3.50;2.75;;;;;15.52;70.36;102084.84;6174716;23;50461;-73
2022/11/02 11:32:18;;;;;;;;;2.75;2.75;;;;;15.82;69.39;102127.88;6174451;23;49752;-68
2022/11/02 11:34:52;;;;;;;;;4.00;3.25;;;;;15.80;69.44;102105.75;6175461;23;50097;-70
2022/11/02 11:37:17;;;;;;;;;5.50;4.00;;;;;15.92;70.06;102119.28;6174821;23;49694;-68
2022/11/02 11:39:49;;;;;;;;;2.25;1.25;;;;;15.68;69.48;102073.75;6175039;23;50791;-66
2022/11/02 11:42:21;;;;;;;;;3.00;3.00;;;;;15.94;69.04;102108.72;6173651;23;49776;-67
2022/11/02 11:44:59;;;;;;;;;4.50;3.50;;;;;15.99;69.14;102107.03;6173518;23;49964;-69
2022/11/02 11:47:29;;;;;;;;;3.00;3.00;;;;;15.72;69.29;102057.94;6174709;23;49571;-64
2022/11/02 11:49:59;;;;;;;;;1.50;1.50;;;;;15.86;69.12;102066.19;6178585;23;50538;-62
2022/11/02 11:52:28;;;;;;;;;7.00;3.75;;;;;15.99;68.48;102089.38;6185701;23;49610;-63
2022/11/02 11:55:01;;;;;;;;;3.25;1.50;;;;;15.98;68.69;102074.38;6183284;23;49829;-62
2022/11/02 11:57:32;;;;;;;;;3.75;2.00;;;;;16.11;68.02;102090.47;6185366;22;49954;-61
2022/11/02 12:00:03;;;;;;;;;5.75;3.25;;;;;16.13;68.36;102084.38;6186251;23;50425;-63
2022/11/02 12:02:31;;;;;;;;;4.00;2.50;;;;;15.85;68.13;102037.94;6187435;23;49357;-63
2022/11/02 12:05:12;;;;;;;;;2.50;2.25;;;;;16.18;68.17;102084.44;6187427;23;49806;-63
2022/11/02 12:08:02;;;;;;;;;3.25;3.00;;;;;16.25;68.40;102084.59;6186971;22;49106;-62
2022/11/02 12:10:38;;;;;;;;;4.50;2.50;;;;;16.17;68.62;102062.34;6181337;23;50252;-65
2022/11/02 12:13:25;;;;;;;;;6.50;3.50;;;;;16.24;68.13;102063.38;6180352;23;49796;-73
2022/11/02 12:16:32;;;;;;;;;4.50;3.00;;;;;16.43;67.42;102081.38;6175700;23;49757;-66
2022/11/02 12:19:05;;;;;;;;;1.75;1.25;;;;;16.39;67.50;102063.63;6128615;23;49798;-65
2022/11/02 12:21:36;;;;;;;;;4.50;2.25;;;;;16.50;67.48;102070.03;6174184;23;50000;-65
2022/11/02 12:24:34;;;;;;;;;4.00;3.00;;;;;16.32;67.26;102027.31;6174758;23;49903;-65
2022/11/02 12:27:28;;;;;;;;;2.75;2.75;;;;;16.45;66.86;102044.31;6174605;23;50037;-65
2022/11/02 12:30:16;;;;;;;;;5.00;3.25;;;;;16.52;66.39;102052.41;6174869;23;49710;-65
2022/11/02 12:32:47;;;;;;;;;2.75;2.75;;;;;16.50;66.53;102046.19;6174356;23;49540;-64
2022/11/02 12:35:31;;;;;;;;;5.50;3.50;;;;;16.46;66.53;102039.03;6175112;23;49812;-65
2022/11/02 12:38:33;;;;;;;;;3.25;2.25;;;;;16.45;66.05;102028.41;6172694;23;49764;-65
2022/11/02 12:41:03;;;;;;;;;4.00;4.00;;;;;16.46;66.03;102020.47;6175158;23;49639;-64
2022/11/02 12:43:48;;;;;;;;;4.00;4.00;;;;;16.45;66.18;102018.69;6174104;23;50716;-64
2022/11/02 12:46:49;;;;;;;;;5.25;2.75;;;;;16.44;65.61;102014.25;6175292;22;49642;-65
2022/11/02 12:49:38;;;;;;;;;4.25;3.00;;;;;16.11;66.04;101952.72;6082300;23;49850;-65
2022/11/02 12:52:03;;;;;;;;;2.50;2.50;;;;;16.25;65.19;101980.38;6169577;23;49568;-65
2022/11/02 12:54:38;;;;;;;;;4.75;1.75;;;;;16.22;66.22;101972.38;6172595;23;51223;-65
2022/11/02 12:57:09;;;;;;;;;3.00;3.00;;;;;15.86;66.28;101894.06;6172736;23;49854;-64
2022/11/02 12:59:40;;;;;;;;;6.00;3.00;;;;;14.98;66.02;101742.53;6175353;22;49736;-64
2022/11/02 13:02:31;;;;;;;;;2.50;2.50;;;;;15.89;65.84;101856.16;6175066;23;49725;-69
2022/11/02 13:04:59;;;;;;;;;4.25;3.75;;;;;16.82;65.91;101977.78;6174587;22;50994;-70
2022/11/02 13:07:32;;;;;;;;;5.75;3.00;;;;;16.69;65.42;101951.94;6175054;23;49625;-68
2022/11/02 13:10:06;;;;;;;;;5.50;2.75;;;;;16.93;64.27;101982.34;6175059;23;49908;-70
2022/11/02 13:12:36;;;;;;;;;7.25;2.00;;;;;16.93;63.78;101964.66;6174706;23;49611;-69
2022/11/02 13:15:03;;;;;;;;;4.50;2.25;;;;;16.70;63.33;101913.97;6174297;22;49796;-70
2022/11/02 13:17:28;;;;;;;;;3.75;1.75;;;;;16.88;62.63;101953.09;6175134;22;49974;-69
2022/11/02 13:19:59;;;;;;;;;5.00;3.00;;;;;16.83;62.58;101945.06;6174754;22;49637;-75
2022/11/02 13:22:32;;;;;;;;;4.00;2.25;;;;;16.41;62.62;101896.72;6174893;22;49754;-82
2022/11/02 13:25:21;;;;;;;;;6.50;1.75;;;;;16.39;63.14;101879.88;6174959;22;49719;-80
2022/11/02 13:27:52;;;;;;;;;6.75;5.25;;;;;15.85;63.38;101767.84;6174254;22;49586;-77
2022/11/02 13:30:18;;;;;;;;;2.25;1.75;;;;;16.03;62.35;101818.44;6175074;22;49772;-75
2022/11/02 13:32:48;;;;;;;;;6.00;4.25;;;;;16.20;62.47;101823.97;6174954;23;49883;-75
2022/11/02 13:35:27;;;;;;;;;5.25;1.00;;;;;16.87;62.45;101930.09;6172888;23;49885;-73
2022/11/02 13:37:59;;;;;;;;;4.00;2.00;;;;;15.49;62.29;101682.53;6174514;23;49596;-79
2022/11/02 13:40:32;;;;;;;;;5.50;3.50;;;;;16.02;62.33;101745.16;6174473;23;49691;-74
2022/11/02 13:43:12;;;;;;;;;1.00;1.00;;;;;17.04;62.28;101912.63;6174910;23;49673;-73
2022/11/02 13:45:50;;;;;;;;;3.50;3.50;;;;;16.90;61.57;101874.44;6174410;23;49681;-75
2022/11/02 13:48:54;;;;;;;;;2.50;2.50;;;;;17.09;61.46;101907.41;6174663;23;49892;-76
2022/11/02 13:51:23;;;;;;;;;3.50;2.50;;;;;16.23;61.20;101754.25;6126549;23;49525;-72
2022/11/02 13:53:58;;;;;;;;;2.25;2.00;;;;;15.66;60.52;101650.19;6175189;22;49925;-77
2022/11/02 13:56:27;;;;;;;;;2.75;1.50;;;;;16.55;60.74;101787.34;6174892;23;49811;-76
2022/11/02 13:58:56;;;;;;;;;1.00;1.00;;;;;16.47;60.37;101762.50;6174478;23;49584;-73
2022/11/02 14:01:23;;;;;;;;;6.25;3.75;;;;;17.25;60.08;101922.63;6174362;23;49857;-77
2022/11/02 14:03:56;;;;;;;;;3.00;2.00;;;;;16.57;59.41;101782.06;6175078;23;49893;-73
2022/11/02 14:06:23;;;;;;;;;1.50;1.50;;;;;16.27;59.14;101740.16;6174225;23;50539;-72
2022/11/02 14:09:01;;;;;;;;;2.75;1.00;;;;;16.14;59.11;101687.91;6197741;22;49605;-74
2022/11/02 14:11:46;;;;;;;;;1.75;0.75;;;;;15.96;59.14;101657.66;6173765;23;50130;-79
2022/11/02 14:14:21;;;;;;;;;1.75;1.75;;;;;17.35;59.21;101876.72;6174452;23;49503;-77
2022/11/02 14:16:49;;;;;;;;;6.75;1.75;;;;;17.31;58.72;101877.59;6174618;22;50849;-76
2022/11/02 14:19:14;;;;;;;;;1.50;0.25;;;;;17.30;58.83;101873.16;6174340;23;49820;-73
2022/11/02 14:22:00;;;;;;;;;3.00;2.00;;;;;17.30;58.75;101866.94;6174801;23;50214;-74
2022/11/02 14:24:31;;;;;;;;;3.00;3.00;;;;;17.36;59.22;101872.31;6157936;23;49516;-71
2022/11/02 14:27:03;;;;;;;;;3.25;2.00;;;;;17.32;58.40;101863.44;6173114;23;51068;-71
2022/11/02 14:29:40;;;;;;;;;3.00;1.75;;;;;17.30;58.04;101872.25;6174601;23;49679;-72
2022/11/02 14:32:35;;;;;;;;;2.50;2.50;;;;;17.08;58.00;101852.53;6175082;23;49927;-73
2022/11/02 14:35:22;;;;;;;;;4.50;2.50;;;;;17.30;58.25;101870.50;6166368;23;50027;-73
2022/11/02 14:38:32;;;;;;;;;5.00;2.00;;;;;17.29;57.97;101883.75;6175220;23;49877;-69
2022/11/02 14:40:57;;;;;;;;;2.00;1.50;;;;;17.31;58.23;101868.72;6175004;22;49685;-70
2022/11/02 14:43:43;;;;;;;;;2.00;2.00;;;;;17.36;58.49;101861.69;6176045;23;49813;-70
2022/11/02 14:46:26;;;;;;;;;2.75;1.75;;;;;17.16;58.23;101834.94;6175776;23;49665;-72
2022/11/02 14:48:58;;;;;;;;;2.50;1.25;;;;;16.86;57.13;101809.84;6198316;22;52327;-72
2022/11/02 14:51:32;;;;;;;;;5.00;2.25;;;;;16.75;57.50;101789.38;6175264;23;49512;-70
2022/11/02 14:54:06;;;;;;;;;3.50;2.25;;;;;17.01;57.45;101810.91;6175297;23;49878;-71
2022/11/02 14:56:49;;;;;;;;;2.25;1.00;;;;;17.23;57.55;101859.78;6175671;23;49554;-74
2022/11/02 14:59:24;;;;;;;;;2.50;1.00;;;;;17.18;57.67;101849.13;6175639;22;49832;-70
2022/11/02 15:01:57;;;;;;;;;1.00;1.00;;;;;17.00;57.79;101831.25;6175546;23;49782;-70
2022/11/02 15:04:25;;;;;;;;;2.50;2.00;;;;;16.66;57.67;101776.88;6175497;22;49731;-71
2022/11/02 15:06:56;;;;;;;;;2.25;2.25;;;;;17.09;57.46;101852.56;6175449;23;49750;-70
2022/11/02 15:09:49;;;;;;;;;1.00;1.00;;;;;17.04;56.99;101841.00;6174992;23;49840;-70
2022/11/02 15:12:34;;;;;;;;;4.00;2.25;;;;;16.48;57.15;101772.22;6175402;23;49965;-71
2022/11/02 15:15:18;;;;;;;;;1.75;1.75;;;;;16.96;57.20;101845.31;6175678;23;49746;-71
2022/11/02 15:17:43;;;;;;;;;4.25;1.25;;;;;16.88;56.95;101836.38;6175101;23;49856;-71
2022/11/02 15:20:09;;;;;;;;;3.00;2.00;;;;;16.85;57.38;101831.94;6175068;23;50359;-72
2022/11/02 15:22:40;;;;;;;;;1.00;1.00;;;;;16.71;57.60;101808.81;6175519;23;49805;-72
2022/11/02 15:25:14;;;;;;;;;1.75;1.75;;;;;15.97;57.94;101699.16;6175659;23;49589;-71
2022/11/02 15:27:42;;;;;;;;;2.00;2.00;;;;;16.16;57.96;101728.53;6175394;23;50114;-71
2022/11/02 15:30:17;;;;;;;;;2.75;2.75;;;;;16.47;58.22;101796.06;6174657;23;49820;-70
2022/11/02 15:32:51;;;;;;;;;3.00;1.00;;;;;16.68;58.42;101827.25;6173522;23;49537;-71
2022/11/02 15:35:21;;;;;;;;;2.50;2.00;;;;;16.51;58.73;101798.81;6175493;22;49887;-71
2022/11/02 15:37:50;;;;;;;;;7.00;2.00;;;;;16.66;58.78;101832.56;6176063;23;49879;-71
2022/11/02 15:40:28;;;;;;;;;4.25;4.25;;;;;15.13;59.14;101591.16;6174407;23;49885;-71
2022/11/02 15:43:07;;;;;;;;;3.00;2.00;;;;;16.33;59.54;101789.72;6175251;23;49517;-71
2022/11/02 15:46:01;;;;;;;;;2.00;2.00;;;;;16.16;59.52;101752.38;6175389;23;49578;-71
2022/11/02 15:48:27;;;;;;;;;5.00;3.75;;;;;16.49;59.68;101821.72;6176143;23;49729;-72
2022/11/02 15:51:22;;;;;;;;;3.75;2.25;;;;;16.44;59.41;101827.84;6174122;23;49688;-71
2022/11/02 15:54:29;;;;;;;;;3.00;2.00;;;;;16.40;60.00;101813.63;6154853;23;49935;-71
2022/11/02 15:57:38;;;;;;;;;3.00;2.75;;;;;16.29;59.90;101807.31;6175074;23;49684;-70
2022/11/02 16:00:16;;;;;;;;;0.75;0.75;;;;;16.29;60.18;101820.56;6173996;23;49932;-71
2022/11/02 16:02:45;;;;;;;;;2.25;2.25;;;;;16.24;60.13;101807.25;6175132;22;49809;-71
2022/11/02 16:05:24;;;;;;;;;1.00;1.00;;;;;16.19;60.76;101803.63;6198234;22;49793;-72
2022/11/02 16:07:53;;;;;;;;;3.25;2.25;;;;;15.82;60.45;101737.75;6174880;23;49658;-71
2022/11/02 16:10:28;;;;;;;;;3.50;2.00;;;;;15.17;61.14;101653.81;6175003;23;49901;-72
2022/11/02 16:12:57;;;;;;;;;3.25;2.25;;;;;16.06;61.16;101788.44;6174984;23;50491;-74
2022/11/02 16:15:23;;;;;;;;;2.00;2.00;;;;;16.01;61.10;101788.38;6175034;23;49678;-75
2022/11/02 16:17:49;;;;;;;;;4.75;3.00;;;;;15.60;61.34;101726.84;6175319;23;49878;-74
2022/11/02 16:20:21;;;;;;;;;4.00;2.00;;;;;15.88;61.71;101780.22;6175392;23;49524;-73
2022/11/02 16:22:49;;;;;;;;;3.25;1.25;;;;;15.37;62.11;101702.66;6174151;23;49583;-72
2022/11/02 16:25:26;;;;;;;;;1.00;1.00;;;;;15.81;61.56;101778.34;6174918;22;49523;-72
2022/11/02 16:27:51;;;;;;;;;2.00;2.00;;;;;14.85;62.03;101613.59;6175255;23;49774;-72
2022/11/02 16:30:19;;;;;;;;;1.50;1.00;;;;;15.51;62.34;101763.72;6174622;23;49615;-73
2022/11/02 16:32:48;;;;;;;;;1.00;1.00;;;;;15.46;62.25;101738.94;6197945;22;50765;-70
2022/11/02 16:35:15;;;;;;;;;1.50;1.50;;;;;15.66;62.54;101771.06;6172381;23;49692;-71
2022/11/02 16:37:42;;;;;;;;;1.75;1.00;;;;;15.51;62.59;101761.06;6175070;22;49753;-75
2022/11/02 16:40:18;;;;;;;;;2.00;1.00;;;;;15.52;62.86;101768.13;6175359;23;49714;-73
2022/11/02 16:42:48;;;;;;;;;2.25;2.25;;;;;15.56;62.65;101809.69;6174894;23;49785;-73
2022/11/02 16:45:47;;;;;;;;;5.00;2.75;;;;;15.54;62.94;101778.75;6175037;23;49854;-71
2022/11/02 16:48:15;;;;;;;;;2.00;1.00;;;;;15.52;63.25;101775.19;6157234;23;49795;-70
2022/11/02 16:51:02;;;;;;;;;1.25;1.25;;;;;15.08;63.60;101711.84;6175526;23;50197;-70
2022/11/02 16:53:31;;;;;;;;;2.00;1.25;;;;;15.35;63.42;101765.25;6174435;23;49744;-74
2022/11/02 16:56:12;;;;;;;;;2.00;1.00;;;;;15.43;64.00;101800.63;6197513;22;49756;-79
2022/11/02 16:58:37;;;;;;;;;4.00;3.00;;;;;15.15;64.25;101727.88;6172940;23;49779;-73
2022/11/02 17:01:06;;;;;;;;;2.00;2.00;;;;;15.11;64.09;101723.38;6198455;22;49778;-73
2022/11/02 17:03:33;;;;;;;;;2.00;2.00;;;;;14.68;64.04;101644.16;6174501;23;50829;-71
2022/11/02 17:06:03;;;;;;;;;3.75;2.75;;;;;14.62;63.82;101652.84;6175143;23;49825;-72
2022/11/02 17:08:32;;;;;;;;;5.75;4.00;;;;;13.68;64.23;101489.06;6174961;23;49747;-72
2022/11/02 17:11:01;;;;;;;;;5.25;3.50;;;;;14.85;63.71;101716.72;6174540;23;49664;-71
2022/11/02 17:13:30;;;;;;;;;3.25;2.50;;;;;15.22;64.40;101759.69;6175004;23;49833;-72
2022/11/02 17:16:03;;;;;;;;;5.25;3.50;;;;;15.21;64.66;101753.50;6174161;22;49630;-72
2022/11/02 17:18:29;;;;;;;;;7.75;2.75;;;;;15.18;64.62;101757.00;6175329;23;49661;-73
2022/11/02 17:21:12;;;;;;;;;1.50;1.50;;;;;15.15;64.57;101746.38;6175082;23;50099;-71
2022/11/02 17:23:40;;;;;;;;;4.25;2.25;;;;;15.11;64.65;101749.81;6174358;23;50471;-73
2022/11/02 17:26:20;;;;;;;;;3.25;2.25;;;;;15.10;64.28;101755.06;6174480;23;49630;-75
2022/11/02 17:28:47;;;;;;;;;7.25;6.00;;;;;15.09;64.77;101751.53;6175110;23;49819;-73
2022/11/02 17:31:21;;;;;;;;;3.00;2.75;;;;;15.01;64.54;101752.25;6174558;23;49520;-70
2022/11/02 17:33:48;;;;;;;;;3.50;3.00;;;;;15.03;64.92;101766.41;6174627;23;49812;-71
2022/11/02 17:36:14;;;;;;;;;2.50;2.50;;;;;14.92;65.20;101744.16;6174996;22;50044;-73
2022/11/02 17:38:40;;;;;;;;;3.00;3.00;;;;;14.92;65.14;101752.09;6175018;23;49887;-71
2022/11/02 17:43:50;;;;;;;;;5.50;3.00;;;;;14.78;65.67;101728.06;6174729;23;49752;-71
2022/11/02 17:46:15;;;;;;;;;2.75;2.00;;;;;14.69;65.41;101727.88;6174939;23;49644;-72
2022/11/02 17:48:41;;;;;;;;;5.75;4.75;;;;;14.82;65.49;101753.66;6174331;23;49793;-70
2022/11/02 17:51:11;;;;;;;;;2.75;2.75;;;;;14.67;66.10;101730.50;6175065;23;50224;-70
2022/11/02 17:53:37;;;;;;;;;8.75;6.50;;;;;14.84;66.04;101765.16;6174370;22;50223;-70
2022/11/02 17:56:03;;;;;;;;;4.25;4.25;;;;;14.85;65.99;101759.00;6174983;23;49618;-76
2022/11/02 17:58:28;;;;;;;;;5.75;4.75;;;;;14.81;66.08;101750.13;6174843;23;49731;-71
2022/11/02 18:00:54;;;;;;;;;10.25;5.25;;;;;14.80;65.90;101735.13;6173897;23;63423;-70
2022/11/02 18:03:20;;;;;;;;;3.75;1.75;;;;;14.70;66.39;101740.22;6174738;23;51285;-70
2022/11/02 18:05:47;;;;;;;;;8.25;5.50;;;;;14.75;65.85;101754.41;6174525;23;49667;-71
2022/11/02 18:08:12;;;;;;;;;5.00;4.00;;;;;14.72;66.34;101746.44;6174313;23;49560;-70
2022/11/02 18:10:44;;;;;;;;;3.50;2.75;;;;;14.69;66.36;101728.75;6175232;23;49745;-70
2022/11/02 18:13:15;;;;;;;;;3.25;3.25;;;;;14.72;66.45;101744.66;6174423;23;50588;-70
2022/11/02 18:15:40;;;;;;;;;4.00;4.00;;;;;14.69;67.12;101736.69;6175122;23;49915;-70
2022/11/02 18:18:06;;;;;;;;;5.25;5.00;;;;;14.68;66.83;101732.28;6174753;23;49681;-72
2022/11/02 18:20:32;;;;;;;;;10.00;7.00;;;;;14.39;67.34;101673.53;6175014;23;49762;-76
2022/11/02 18:22:59;;;;;;;;;5.75;3.75;;;;;14.57;67.80;101713.56;6175328;23;50974;-71
2022/11/02 18:25:26;;;;;;;;;10.00;8.25;;;;;14.61;67.65;101730.38;6174162;23;49640;-71
2022/11/02 18:27:52;;;;;;;;;5.50;4.00;;;;;14.62;67.71;101729.50;6172318;23;49595;-75
2022/11/02 18:30:17;;;;;;;;;3.00;3.00;;;;;14.49;67.53;101698.41;6174743;23;49822;-68
2022/11/02 18:32:44;;;;;;;;;3.75;3.25;;;;;14.62;68.03;101726.84;6174459;23;50379;-69
2022/11/02 18:35:12;;;;;;;;;5.75;4.00;;;;;14.56;68.14;101713.50;6174512;23;49747;-68
2022/11/02 18:37:38;;;;;;;;;5.00;4.00;;;;;14.57;68.39;101720.56;6173739;23;49955;-67
2022/11/02 18:40:06;;;;;;;;;4.75;4.00;;;;;14.49;68.50;101701.06;6174552;23;49796;-71
2022/11/02 18:42:33;;;;;;;;;8.75;6.25;;;;;14.54;68.16;101716.13;6173829;23;49814;-66
2022/11/02 18:44:59;;;;;;;;;6.50;4.25;;;;;14.43;68.33;101693.84;6174639;23;49523;-69
2022/11/02 18:47:24;;;;;;;;;4.00;3.75;;;;;14.51;68.40;101709.91;6174565;23;49691;-70
2022/11/02 18:49:50;;;;;;;;;4.50;4.50;;;;;14.14;68.62;101631.66;6174831;23;49869;-72
2022/11/02 18:52:15;;;;;;;;;4.50;4.25;;;;;14.45;68.78;101678.06;6173318;23;68953;-68
2022/11/02 18:54:41;;;;;;;;;6.50;4.25;;;;;14.35;68.74;101649.66;6172410;23;49735;-77
2022/11/02 18:57:06;;;;;;;;;8.50;6.75;;;;;14.70;68.77;101690.91;6174870;23;49576;-76
2022/11/02 18:59:33;;;;;;;;;6.00;6.00;;;;;14.29;68.73;101603.78;6177007;22;49520;-67
2022/11/02 19:01:58;;;;;;;;;9.50;6.00;;;;;14.55;68.50;101650.97;6175301;22;50420;-68
2022/11/02 19:04:24;;;;;;;;;11.75;6.75;;;;;14.74;68.67;101679.50;6182962;23;49828;-78
2022/11/02 19:09:35;;;;;;;;;3.00;2.00;;;;;14.56;68.61;101637.78;6174163;23;49778;-78
2022/11/02 19:12:07;;;;;;;;;6.25;4.75;;;;;14.76;68.86;101666.31;6173803;23;51439;-75
2022/11/02 19:14:42;;;;;;;;;10.25;7.75;;;;;14.38;69.00;101596.88;6174006;23;50081;-76
2022/11/02 19:17:09;;;;;;;;;7.25;5.75;;;;;13.89;69.10;101524.66;6173922;23;49662;-77
2022/11/02 19:19:35;;;;;;;;;10.50;8.75;;;;;14.66;69.24;101656.44;6174278;23;49508;-78